All Spectrum Aviation - Van Nuys Airport - KVNY

HOME

Van Nuys Tower Recordings

Condor Squadron KVNY Webcam

Visit our Electronics Store

Condor Squadron Webcam - Van Nuys Airport - KVNY
Picture taken: Sun, 29 May 2016 13:55:31 -0700
YouTube Channel!    Latest Timelapse Movie    Full Size Image    Regular Size Image    

2016/05/29 19:51 KVNY 291951Z 00000KT 10SM SCT028 BKN035 21/11 A3000 RMK AO2 SLP152 T02110111

HOME

Van Nuys Tower Recordings

Condor Squadron KVNY Webcam

Visit our Electronics Store